Time;durP1;ratioP1;P1;durP2;ratioP2;P2;SDS_P1;SDS_P2;PMS_P1;PMS_P2;Temp;Humidity;BMP_temperature;BMP_pressure;BME280_temperature;BME280_humidity;BME280_pressure;Samples;Min_cycle;Max_cycle;Signal;HPM_P1;HPM_P2
2023/11/06 00:01:55;;;;;;;5.15;1.30;;;;;;;9.36;100.00;98723.63;4894023;29;20167;-72
2023/11/06 00:04:22;;;;;;;5.90;1.00;;;;;;;9.35;100.00;98736.19;4886092;29;20107;-73
2023/11/06 00:06:47;;;;;;;3.58;1.05;;;;;;;9.37;100.00;98735.88;4906101;29;20032;-72
2023/11/06 00:09:14;;;;;;;4.38;1.10;;;;;;;9.37;100.00;98742.00;4897435;29;20055;-71
2023/11/06 00:11:40;;;;;;;3.70;1.00;;;;;;;9.38;100.00;98746.25;4884898;29;20047;-73
2023/11/06 00:14:06;;;;;;;;;;;;;;;9.33;100.00;98749.06;4904272;29;20036;-73
2023/11/06 00:16:32;;;;;;;5.10;1.45;;;;;;;9.29;100.00;98759.59;4909740;29;19982;-73
2023/11/06 00:18:58;;;;;;;6.63;1.55;;;;;;;9.27;100.00;98753.75;4901394;29;20893;-72
2023/11/06 00:21:23;;;;;;;7.57;1.60;;;;;;;9.25;100.00;98763.97;4902820;29;20645;-72
2023/11/06 00:23:49;;;;;;;7.65;1.90;;;;;;;9.23;100.00;98770.72;4915749;29;20123;-73
2023/11/06 00:26:15;;;;;;;;;;;;;;;9.23;100.00;98771.50;4896634;29;20532;-73
2023/11/06 00:28:51;;;;;;;14.52;1.88;;;;;;;9.22;100.00;98769.94;4901718;29;19923;-72
2023/11/06 00:31:17;;;;;;;5.28;1.92;;;;;;;9.21;100.00;98772.88;4900483;29;20047;-72
2023/11/06 00:33:42;;;;;;;10.38;1.85;;;;;;;9.19;100.00;98778.53;4915425;29;20028;-72
2023/11/06 00:36:18;;;;;;;7.45;1.80;;;;;;;9.20;100.00;98782.00;4915923;29;20299;-72
2023/11/06 00:38:46;;;;;;;6.75;1.50;;;;;;;9.17;100.00;98779.97;4918371;29;20036;-72
2023/11/06 00:41:12;;;;;;;8.65;2.10;;;;;;;9.16;100.00;98791.75;4882747;29;20051;-72
2023/11/06 00:43:39;;;;;;;10.20;2.13;;;;;;;9.15;100.00;98806.97;4903352;29;20063;-72
2023/11/06 00:46:05;;;;;;;17.00;2.50;;;;;;;9.16;100.00;98807.75;4888042;29;20497;-73
2023/11/06 00:48:31;;;;;;;8.88;2.00;;;;;;;9.14;100.00;98805.38;4891538;29;20100;-74
2023/11/06 00:50:56;;;;;;;5.93;1.88;;;;;;;9.17;100.00;98809.34;4891932;29;20036;-72
2023/11/06 00:53:22;;;;;;;9.10;1.90;;;;;;;9.16;100.00;98815.78;4910264;29;20099;-71
2023/11/06 00:55:48;;;;;;;9.25;1.98;;;;;;;9.12;100.00;98823.59;4910847;29;20032;-72
2023/11/06 00:58:16;;;;;;;8.50;2.58;;;;;;;9.11;100.00;98837.25;4924339;23;20098;-76
2023/11/06 01:00:42;;;;;;;7.30;1.45;;;;;;;9.10;100.00;98830.34;4884238;29;20048;-78
2023/11/06 01:03:08;;;;;;;7.70;1.92;;;;;;;9.06;100.00;98829.38;4904409;29;20047;-76
2023/11/06 01:05:34;;;;;;;9.13;2.10;;;;;;;9.01;100.00;98849.78;4891122;29;20036;-76
2023/11/06 01:08:01;;;;;;;10.10;1.85;;;;;;;9.00;100.00;98845.50;4904753;29;20028;-77
2023/11/06 01:10:28;;;;;;;8.00;1.75;;;;;;;8.96;100.00;98857.13;4903654;29;20184;-78
2023/11/06 01:12:56;;;;;;;8.63;1.88;;;;;;;8.94;100.00;98852.09;4885622;29;20123;-79
2023/11/06 01:15:22;;;;;;;6.40;2.03;;;;;;;8.97;100.00;98866.72;4902528;29;20040;-76
2023/11/06 01:17:48;;;;;;;8.90;1.92;;;;;;;8.97;100.00;98875.50;4904559;29;20032;-76
2023/11/06 01:20:15;;;;;;;8.48;1.90;;;;;;;8.98;100.00;98881.63;4872013;29;20127;-77
2023/11/06 01:22:41;;;;;;;7.63;1.70;;;;;;;8.97;100.00;98878.16;4887114;29;20076;-76
2023/11/06 01:25:08;;;;;;;6.38;2.30;;;;;;;9.02;100.00;98883.41;4895446;29;20059;-75
2023/11/06 01:27:33;;;;;;;6.30;1.75;;;;;;;9.06;100.00;98893.47;4901251;29;20131;-75
2023/11/06 01:30:00;;;;;;;9.27;2.40;;;;;;;8.98;100.00;98887.75;4898312;29;20132;-75
2023/11/06 01:32:26;;;;;;;6.63;1.88;;;;;;;8.99;100.00;98889.31;4887944;29;20044;-76
2023/11/06 01:34:52;;;;;;;6.72;2.30;;;;;;;8.98;100.00;98895.75;4869599;29;20494;-74
2023/11/06 01:37:19;;;;;;;9.30;2.30;;;;;;;8.97;100.00;98896.84;4898838;29;20068;-75
2023/11/06 01:39:44;;;;;;;8.88;2.63;;;;;;;8.97;100.00;98896.06;4888558;29;20506;-74
2023/11/06 01:42:11;;;;;;;8.32;2.80;;;;;;;8.95;100.00;98901.72;4904494;29;20039;-75
2023/11/06 01:44:38;;;;;;;7.88;2.10;;;;;;;8.93;100.00;98911.09;4903399;29;20812;-76
2023/11/06 01:47:05;;;;;;;7.38;2.67;;;;;;;8.88;100.00;98924.59;4902173;29;20123;-77
2023/11/06 01:49:31;;;;;;;4.53;2.00;;;;;;;8.89;100.00;98921.63;4900717;29;20095;-75
2023/11/06 01:51:57;;;;;;;6.97;2.25;;;;;;;8.89;100.00;98929.63;4901164;29;20032;-77
2023/11/06 01:54:23;;;;;;;9.40;2.63;;;;;;;8.89;100.00;98942.19;4885543;29;20127;-74
2023/11/06 01:56:49;;;;;;;8.60;2.65;;;;;;;8.85;100.00;98936.66;4903024;29;20467;-75
2023/11/06 01:59:15;;;;;;;9.93;2.90;;;;;;;8.83;100.00;98946.84;4886728;29;20651;-73
2023/11/06 02:01:45;;;;;;;11.80;2.65;;;;;;;8.82;100.00;98952.50;4903717;29;20078;-75
2023/11/06 02:04:13;;;;;;;8.93;2.42;;;;;;;8.80;100.00;98952.78;4900959;29;20106;-75
2023/11/06 02:06:40;;;;;;;8.02;2.60;;;;;;;8.75;100.00;98964.38;4884016;29;20777;-74
2023/11/06 02:09:06;;;;;;;6.43;3.10;;;;;;;8.73;100.00;98965.75;4868484;29;20076;-75
2023/11/06 02:11:33;;;;;;;9.48;2.38;;;;;;;8.71;100.00;98974.06;4887993;29;20147;-75
2023/11/06 02:13:59;;;;;;;;;;;;;;;8.66;100.00;98970.69;4888434;29;20046;-74
2023/11/06 02:16:25;;;;;;;10.80;3.38;;;;;;;8.63;100.00;98976.66;4900943;29;19919;-75
2023/11/06 02:18:52;;;;;;;8.18;2.58;;;;;;;8.64;100.00;98981.69;4904675;29;20039;-74
2023/11/06 02:21:19;;;;;;;7.65;2.70;;;;;;;8.66;100.00;98998.19;4884838;29;20158;-74
2023/11/06 02:23:45;;;;;;;8.20;2.53;;;;;;;8.68;100.00;98984.56;4887470;29;20036;-74
2023/11/06 02:26:11;;;;;;;8.77;2.47;;;;;;;8.68;100.00;98995.22;4903883;29;20099;-75
2023/11/06 02:28:36;;;;;;;9.63;3.17;;;;;;;8.70;100.00;98998.38;4903107;29;20076;-75
2023/11/06 02:31:03;;;;;;;6.40;2.60;;;;;;;8.70;100.00;98996.50;4888054;29;20343;-75
2023/11/06 02:33:29;;;;;;;9.23;2.60;;;;;;;8.72;100.00;99001.53;4878265;29;20120;-75
2023/11/06 02:35:54;;;;;;;9.50;2.50;;;;;;;8.77;100.00;99008.66;4878782;29;20406;-74
2023/11/06 02:38:20;;;;;;;9.20;2.83;;;;;;;8.75;100.00;99006.28;4897210;29;20131;-75
2023/11/06 02:40:47;;;;;;;9.32;2.80;;;;;;;8.72;100.00;99009.53;4894255;29;20058;-75
2023/11/06 02:43:13;;;;;;;;;;;;;;;8.69;100.00;99008.25;4899051;29;20071;-75
2023/11/06 02:45:39;;;;;;;5.70;2.83;;;;;;;8.67;100.00;99022.97;4883992;29;20014;-75
2023/11/06 02:48:05;;;;;;;6.63;2.80;;;;;;;8.69;100.00;99028.84;4884643;29;20044;-75
2023/11/06 02:50:31;;;;;;;7.07;2.75;;;;;;;8.67;100.00;99025.66;4900349;29;20036;-75
2023/11/06 02:52:57;;;;;;;6.80;2.88;;;;;;;8.63;100.00;99020.13;4887283;29;20044;-74
2023/11/06 02:55:22;;;;;;;6.28;2.97;;;;;;;8.60;100.00;99027.94;4870335;29;21358;-75
2023/11/06 02:57:48;;;;;;;8.13;3.30;;;;;;;8.61;100.00;99037.53;4883569;29;20111;-74
2023/11/06 03:00:14;;;;;;;;;;;;;;;8.59;100.00;99037.03;4887443;29;20036;-75
2023/11/06 03:02:40;;;;;;;5.43;2.63;;;;;;;8.59;100.00;99047.69;4904928;29;19942;-76
2023/11/06 03:05:07;;;;;;;7.80;2.90;;;;;;;8.58;100.00;99046.13;4889621;29;20171;-74
2023/11/06 03:07:35;;;;;;;10.57;3.40;;;;;;;8.55;100.00;99055.53;4902357;29;20047;-76
2023/11/06 03:10:03;;;;;;;7.68;3.20;;;;;;;8.54;100.00;99063.84;4904030;29;20040;-74
2023/11/06 03:12:29;;;;;;;10.77;3.22;;;;;;;8.51;100.00;99073.19;4871540;29;20146;-75
2023/11/06 03:14:54;;;;;;;8.32;3.50;;;;;;;8.47;100.00;99073.00;4887822;29;20443;-76
2023/11/06 03:17:20;;;;;;;11.05;3.78;;;;;;;8.45;100.00;99091.19;4885067;29;20051;-74
2023/11/06 03:19:46;;;;;;;7.18;2.95;;;;;;;8.42;100.00;99093.66;4900565;29;20397;-75
2023/11/06 03:22:12;;;;;;;10.02;3.90;;;;;;;8.40;100.00;99096.63;4871197;29;20044;-73
2023/11/06 03:24:39;;;;;;;;;;;;;;;8.38;100.00;99098.78;4902072;29;20124;-74
2023/11/06 03:27:04;;;;;;;6.05;2.60;;;;;;;8.34;100.00;99095.09;4888837;29;19994;-74
2023/11/06 03:29:30;;;;;;;4.97;2.35;;;;;;;8.32;100.00;99110.59;4902724;29;20040;-75
2023/11/06 03:31:56;;;;;;;7.97;2.72;;;;;;;8.30;100.00;99107.44;4901879;29;20481;-75
2023/11/06 03:34:23;;;;;;;7.50;2.70;;;;;;;8.30;100.00;99111.97;4899121;29;20044;-74
2023/11/06 03:36:50;;;;;;;7.15;2.47;;;;;;;8.27;100.00;99108.03;4899567;29;20071;-74
2023/11/06 03:39:16;;;;;;;7.25;3.80;;;;;;;8.28;100.00;99111.50;4901154;29;20032;-75
2023/11/06 03:41:43;;;;;;;5.32;2.38;;;;;;;8.26;100.00;99126.97;4908303;29;20615;-75
2023/11/06 03:44:10;;;;;;;5.65;2.40;;;;;;;8.24;100.00;99121.16;4909196;29;20055;-74
2023/11/06 03:46:36;;;;;;;10.32;2.90;;;;;;;8.21;100.00;99131.31;4874151;29;20043;-73
2023/11/06 03:49:06;;;;;;;7.10;2.10;;;;;;;8.17;100.00;99124.19;4888231;29;20048;-75
2023/11/06 03:51:32;;;;;;;8.65;2.45;;;;;;;8.14;100.00;99135.47;4867200;29;20498;-74
2023/11/06 03:53:57;;;;;;;8.10;2.40;;;;;;;8.11;100.00;99142.16;4874176;29;20047;-74
2023/11/06 03:56:23;;;;;;;8.05;3.25;;;;;;;8.10;100.00;99139.78;4904574;29;20036;-76
2023/11/06 03:58:49;;;;;;;6.53;2.63;;;;;;;8.08;100.00;99148.09;4874974;29;20045;-75
2023/11/06 04:01:15;;;;;;;9.07;3.20;;;;;;;8.08;100.00;99141.97;4905140;29;20036;-73
2023/11/06 04:03:41;;;;;;;5.28;2.20;;;;;;;8.07;100.00;99151.03;4895251;29;20764;-74
2023/11/06 04:06:07;;;;;;;6.28;2.50;;;;;;;8.04;100.00;99151.59;4906385;29;20126;-74
2023/11/06 04:08:33;;;;;;;6.72;2.45;;;;;;;8.02;100.00;99156.44;4904727;29;20055;-74
2023/11/06 04:10:59;;;;;;;6.32;2.50;;;;;;;7.99;100.00;99159.69;4892313;29;20063;-75
2023/11/06 04:13:25;;;;;;;5.78;2.90;;;;;;;7.98;100.00;99153.56;4904921;29;20598;-74
2023/11/06 04:15:50;;;;;;;9.40;3.85;;;;;;;7.94;100.00;99156.03;4900916;29;20036;-75
2023/11/06 04:18:16;;;;;;;6.53;3.40;;;;;;;7.91;100.00;99163.81;4904940;29;20092;-75
2023/11/06 04:20:42;;;;;;;5.97;3.13;;;;;;;7.93;100.00;99173.09;4881238;29;20040;-74
2023/11/06 04:23:11;;;;;;;6.82;3.30;;;;;;;7.88;100.00;99175.84;4903567;29;20522;-74
2023/11/06 04:25:37;;;;;;;8.32;3.03;;;;;;;7.88;100.00;99175.06;4899999;29;20052;-74
2023/11/06 04:28:04;;;;;;;4.60;3.00;;;;;;;7.88;100.00;99181.19;4901720;29;20047;-75
2023/11/06 04:30:31;;;;;;;6.57;3.95;;;;;;;7.87;100.00;99184.13;4887255;29;20037;-74
2023/11/06 04:32:59;;;;;;;4.05;3.00;;;;;;;7.85;100.00;99189.72;4906284;29;20060;-76
2023/11/06 04:35:26;;;;;;;7.88;3.40;;;;;;;7.84;100.00;99196.16;4903438;29;20473;-75
2023/11/06 04:37:52;;;;;;;9.43;3.60;;;;;;;7.81;100.00;99212.72;4904038;29;20047;-74
2023/11/06 04:40:19;;;;;;;9.88;3.85;;;;;;;7.81;100.00;99218.06;4886573;29;20036;-75
2023/11/06 04:42:46;;;;;;;5.93;3.53;;;;;;;7.82;100.00;99219.63;4900683;29;20037;-74
2023/11/06 04:45:12;;;;;;;13.75;3.40;;;;;;;7.80;100.00;99215.69;4882860;29;20506;-75
2023/11/06 04:47:38;;;;;;;6.65;3.67;;;;;;;7.80;100.00;99221.81;4904421;29;20039;-74
2023/11/06 04:50:04;;;;;;;6.78;3.92;;;;;;;7.78;100.00;99234.59;4905913;29;20036;-74
2023/11/06 04:52:30;;;;;;;9.07;3.70;;;;;;;7.77;100.00;99230.38;4904548;29;20074;-74
2023/11/06 04:54:56;;;;;;;9.57;4.20;;;;;;;7.77;100.00;99230.38;4891744;29;20080;-73
2023/11/06 04:57:21;;;;;;;7.40;4.70;;;;;;;7.81;100.00;99233.25;4892498;29;20071;-75
2023/11/06 04:59:47;;;;;;;;;;;;;;;7.82;100.00;99232.97;4904387;29;20150;-74
2023/11/06 05:02:13;;;;;;;9.90;4.03;;;;;;;7.80;100.00;99235.13;4903536;29;20381;-76
2023/11/06 05:04:39;;;;;;;10.30;4.53;;;;;;;7.78;100.00;99239.94;4906989;29;20407;-74
2023/11/06 05:07:05;;;;;;;7.82;4.20;;;;;;;7.75;100.00;99245.84;4904826;29;20063;-77
2023/11/06 05:09:30;;;;;;;6.65;3.78;;;;;;;7.73;100.00;99252.56;4890576;29;20183;-74
2023/11/06 05:11:56;;;;;;;19.25;5.00;;;;;;;7.69;100.00;99260.31;4881276;29;20044;-75
2023/11/06 05:14:22;;;;;;;6.80;3.80;;;;;;;7.64;100.00;99271.84;4877382;29;20044;-73
2023/11/06 05:16:48;;;;;;;6.38;4.18;;;;;;;7.63;100.00;99266.78;4900032;29;20039;-74
2023/11/06 05:19:14;;;;;;;9.10;4.25;;;;;;;7.56;100.00;99264.47;4881663;29;20048;-74
2023/11/06 05:21:39;;;;;;;8.52;4.90;;;;;;;7.56;100.00;99285.00;4868991;29;20032;-74
2023/11/06 05:24:05;;;;;;;6.75;4.07;;;;;;;7.57;100.00;99283.91;4885921;29;20087;-73
2023/11/06 05:26:31;;;;;;;7.80;5.32;;;;;;;7.59;100.00;99273.78;4897878;29;20481;-73
2023/11/06 05:28:57;;;;;;;7.60;4.88;;;;;;;7.58;100.00;99288.16;4888402;29;20044;-74
2023/11/06 05:31:23;;;;;;;11.77;6.20;;;;;;;7.61;100.00;99285.72;4902641;29;20046;-76
2023/11/06 05:33:52;;;;;;;;;;;;;;;7.64;100.00;99303.00;4884846;29;20036;-74
2023/11/06 05:36:18;;;;;;;8.05;5.80;;;;;;;7.64;100.00;99303.00;4901867;29;20432;-73
2023/11/06 05:38:44;;;;;;;8.90;5.88;;;;;;;7.63;100.00;99307.56;4888194;29;20060;-75
2023/11/06 05:41:11;;;;;;;;;;;;;;;7.61;100.00;99306.25;4903945;29;20447;-74
2023/11/06 05:43:38;;;;;;;8.52;5.30;;;;;;;7.59;100.00;99313.75;4903948;29;19926;-74
2023/11/06 05:46:06;;;;;;;11.70;5.32;;;;;;;7.58;100.00;99309.47;4904758;29;20063;-74
2023/11/06 05:48:32;;;;;;;10.38;6.20;;;;;;;7.56;100.00;99319.63;4902007;29;20066;-75
2023/11/06 05:50:59;;;;;;;9.52;6.13;;;;;;;7.57;100.00;99321.22;4888246;29;20043;-75
2023/11/06 05:53:25;;;;;;;8.18;5.20;;;;;;;7.52;100.00;99316.75;4904168;29;20126;-75
2023/11/06 05:55:50;;;;;;;9.73;5.85;;;;;;;7.49;100.00;99327.16;4889176;29;20031;-74
2023/11/06 05:58:16;;;;;;;13.05;6.57;;;;;;;7.50;100.00;99323.44;4901958;29;20046;-75
2023/11/06 06:00:42;;;;;;;8.95;5.18;;;;;;;7.50;100.00;99320.75;4882615;29;20052;-75
2023/11/06 06:03:08;;;;;;;10.43;5.65;;;;;;;7.53;100.00;99333.53;4873076;29;20068;-74
2023/11/06 06:05:34;;;;;;;8.70;5.28;;;;;;;7.52;100.00;99339.91;4872365;29;21290;-74
2023/11/06 06:08:00;;;;;;;11.13;6.13;;;;;;;7.51;100.00;99343.66;4899668;29;20622;-75
2023/11/06 06:10:26;;;;;;;;;;;;;;;7.52;100.00;99342.56;4889656;29;20043;-74
2023/11/06 06:12:52;;;;;;;8.52;4.88;;;;;;;7.47;100.00;99358.63;4891678;29;19919;-74
2023/11/06 06:15:18;;;;;;;8.45;5.78;;;;;;;7.46;100.00;99371.16;4887173;29;20650;-75
2023/11/06 06:17:43;;;;;;;11.38;5.93;;;;;;;7.47;100.00;99371.94;4882043;29;20037;-74
2023/11/06 06:20:12;;;;;;;7.65;5.13;;;;;;;7.46;100.00;99381.03;4900264;29;20036;-74
2023/11/06 06:22:39;;;;;;;9.23;5.25;;;;;;;7.44;100.00;99383.16;4901479;29;20041;-75
2023/11/06 06:25:06;;;;;;;8.32;4.97;;;;;;;7.47;100.00;99387.94;4902222;29;20582;-74
2023/11/06 06:27:32;;;;;;;10.70;5.38;;;;;;;7.45;100.00;99406.06;4884182;29;20123;-74
2023/11/06 06:29:57;;;;;;;8.10;4.90;;;;;;;7.44;100.00;99409.78;4888690;29;20392;-75
2023/11/06 06:32:24;;;;;;;11.05;6.05;;;;;;;7.44;100.00;99410.59;4900668;29;20135;-74
2023/11/06 06:34:50;;;;;;;6.88;4.68;;;;;;;7.48;100.00;99416.16;4905750;29;20036;-74
2023/11/06 06:37:16;;;;;;;10.27;5.30;;;;;;;7.49;100.00;99423.06;4902730;29;20080;-75
2023/11/06 06:39:43;;;;;;;;;;;;;;;7.51;100.00;99431.56;4886834;29;20036;-74
2023/11/06 06:42:09;;;;;;;7.72;4.43;;;;;;;7.49;100.00;99436.38;4899999;29;20436;-75
2023/11/06 06:44:37;;;;;;;7.00;5.32;;;;;;;7.49;100.00;99437.19;4902640;29;20126;-74
2023/11/06 06:47:03;;;;;;;8.88;4.88;;;;;;;7.48;100.00;99437.47;4903583;29;20043;-74
2023/11/06 06:49:28;;;;;;;13.70;5.75;;;;;;;7.51;100.00;99445.69;4900969;29;20032;-74
2023/11/06 06:51:54;;;;;;;10.48;5.63;;;;;;;7.60;100.00;99446.69;4888306;29;20502;-74
2023/11/06 06:54:20;;;;;;;12.23;5.68;;;;;;;7.64;100.00;99446.91;4902404;29;20043;-74
2023/11/06 06:56:47;;;;;;;10.50;5.45;;;;;;;7.67;100.00;99451.69;4889044;29;20036;-74
2023/11/06 06:59:13;;;;;;;10.40;5.65;;;;;;;7.71;100.00;99452.69;4904112;29;20047;-75
2023/11/06 07:01:39;;;;;;;11.20;5.20;;;;;;;7.75;100.00;99467.06;4890360;29;20040;-75
2023/11/06 07:04:05;;;;;;;8.70;4.63;;;;;;;7.76;100.00;99468.63;4901542;29;20522;-75
2023/11/06 07:06:31;;;;;;;7.60;5.10;;;;;;;7.80;100.00;99466.22;4880846;29;20040;-76
2023/11/06 07:08:57;;;;;;;8.98;4.30;;;;;;;7.87;100.00;99478.13;4886417;29;20195;-74
2023/11/06 07:11:23;;;;;;;9.18;5.25;;;;;;;7.92;100.00;99479.94;4903006;29;20036;-75
2023/11/06 07:13:48;;;;;;;9.85;5.38;;;;;;;8.02;100.00;99487.84;4900281;29;20541;-74
2023/11/06 07:16:16;;;;;;;11.05;5.70;;;;;;;8.08;100.00;99489.38;4902651;29;20042;-75
2023/11/06 07:18:42;;;;;;;7.22;5.03;;;;;;;8.14;100.00;99492.78;4897193;29;20032;-74
2023/11/06 07:21:08;;;;;;;9.77;5.13;;;;;;;8.18;100.00;99483.13;4898874;29;20635;-74
2023/11/06 07:23:34;;;;;;;;;;;;;;;8.21;100.00;99493.25;4867273;29;20864;-75
2023/11/06 07:25:59;;;;;;;9.60;4.80;;;;;;;8.23;100.00;99485.75;4899045;29;20022;-75
2023/11/06 07:28:25;;;;;;;10.18;5.57;;;;;;;8.27;100.00;99489.44;4898150;29;20180;-76
2023/11/06 07:30:51;;;;;;;10.98;5.28;;;;;;;8.31;100.00;99495.78;4877278;29;20043;-74
2023/11/06 07:33:16;;;;;;;8.70;5.22;;;;;;;8.32;100.00;99489.34;4901519;29;20094;-75
2023/11/06 07:35:43;;;;;;;7.43;5.03;;;;;;;8.32;100.00;99500.03;4871333;29;20032;-75
2023/11/06 07:38:10;;;;;;;8.70;4.93;;;;;;;8.36;100.00;99506.41;4882172;29;20051;-74
2023/11/06 07:40:38;;;;;;;8.27;5.65;;;;;;;8.40;100.00;99510.13;4869673;29;20044;-75
2023/11/06 07:43:04;;;;;;;7.90;4.47;;;;;;;8.45;100.00;99515.38;4883365;29;20056;-74
2023/11/06 07:45:30;;;;;;;9.43;5.05;;;;;;;8.49;100.00;99520.94;4880749;29;20048;-75
2023/11/06 07:48:01;;;;;;;12.10;5.63;;;;;;;8.52;100.00;99522.25;4885502;29;20028;-75
2023/11/06 07:50:32;;;;;;;8.95;5.53;;;;;;;8.55;100.00;99527.03;4866001;29;20048;-75
2023/11/06 07:52:58;;;;;;;9.60;4.40;;;;;;;8.56;100.00;99525.94;4901223;29;20632;-74
2023/11/06 07:55:23;;;;;;;8.88;5.43;;;;;;;8.60;100.00;99527.75;4881459;29;20040;-74
2023/11/06 07:57:49;;;;;;;11.77;5.68;;;;;;;8.63;100.00;99534.41;4833165;29;1466350;-75
2023/11/06 08:00:16;;;;;;;8.73;4.72;;;;;;;8.67;100.00;99524.72;4913917;29;20042;-75
2023/11/06 08:02:41;;;;;;;6.07;4.20;;;;;;;8.72;100.00;99538.00;4898224;29;20056;-75
2023/11/06 08:05:11;;;;;;;7.80;4.68;;;;;;;8.73;100.00;99542.25;4905497;29;20510;-74
2023/11/06 08:07:38;;;;;;;6.22;4.28;;;;;;;8.75;100.00;99540.91;4893441;29;20083;-75
2023/11/06 08:10:09;;;;;;;6.57;4.28;;;;;;;8.78;100.00;99542.19;4885692;29;20040;-75
2023/11/06 08:12:35;;;;;;;9.18;4.88;;;;;;;8.79;100.00;99557.13;4901403;29;20036;-75
2023/11/06 08:15:04;;;;;;;;;;;;;;;8.83;100.00;99549.38;4871978;29;20043;-74
2023/11/06 08:17:30;;;;;;;8.18;4.47;;;;;;;8.84;100.00;99565.09;4894024;29;20404;-75
2023/11/06 08:19:57;;;;;;;9.35;4.05;;;;;;;8.88;100.00;99555.44;4897149;29;20434;-74
2023/11/06 08:22:23;;;;;;;8.93;4.28;;;;;;;8.90;100.00;99560.47;4870865;29;20745;-74
2023/11/06 08:24:49;;;;;;;7.47;4.72;;;;;;;8.92;100.00;99572.44;4890661;29;20043;-75
2023/11/06 08:27:15;;;;;;;8.75;4.40;;;;;;;8.93;100.00;99567.91;4903339;29;20044;-75
2023/11/06 08:29:44;;;;;;;;;;;;;;;8.93;100.00;99571.38;4904500;29;20032;-74
2023/11/06 08:32:11;;;;;;;7.93;4.43;;;;;;;8.97;100.00;99568.94;4884075;29;19923;-74
2023/11/06 08:34:42;;;;;;;6.10;3.67;;;;;;;9.01;100.00;99576.09;4908061;29;20516;-75
2023/11/06 08:37:09;;;;;;;6.75;4.68;;;;;;;9.05;100.00;99591.53;4886795;29;20032;-74
2023/11/06 08:39:35;;;;;;;6.63;3.95;;;;;;;9.06;100.00;99585.91;4885477;29;20124;-75
2023/11/06 08:42:00;;;;;;;7.18;3.92;;;;;;;9.10;100.00;99599.47;4903564;29;20134;-74
2023/11/06 08:44:26;;;;;;;7.57;4.30;;;;;;;9.13;100.00;99590.88;4905706;29;20040;-75
2023/11/06 08:46:53;;;;;;;9.73;3.60;;;;;;;9.16;100.00;99603.69;4886008;29;20033;-74
2023/11/06 08:49:20;;;;;;;6.15;3.83;;;;;;;9.20;100.00;99605.47;4903643;29;20036;-74
2023/11/06 08:51:45;;;;;;;9.32;4.70;;;;;;;9.22;100.00;99599.84;4905724;29;20047;-74
2023/11/06 08:54:11;;;;;;;12.00;4.13;;;;;;;9.21;100.00;99608.94;4873705;29;20051;-73
2023/11/06 08:56:36;;;;;;;8.43;4.93;;;;;;;9.23;100.00;99598.78;4905221;29;20052;-74
2023/11/06 08:59:02;;;;;;;9.35;3.97;;;;;;;9.24;100.00;99608.38;4902294;29;20032;-74
2023/11/06 09:01:28;;;;;;;8.38;4.45;;;;;;;9.26;100.00;99619.56;4890889;29;20040;-75
2023/11/06 09:03:53;;;;;;;9.82;4.70;;;;;;;9.28;100.00;99628.09;4902978;29;20115;-75
2023/11/06 09:06:21;;;;;;;8.02;3.85;;;;;;;9.32;100.00;99623.75;4898174;29;20039;-74
2023/11/06 09:08:47;;;;;;;8.98;4.07;;;;;;;9.34;100.00;99626.91;4899790;29;20123;-73
2023/11/06 09:11:12;;;;;;;10.02;3.95;;;;;;;9.42;100.00;99628.19;4886413;29;20139;-74
2023/11/06 09:13:38;;;;;;;10.63;4.97;;;;;;;9.48;100.00;99633.16;4883893;29;20105;-73
2023/11/06 09:16:04;;;;;;;8.20;3.83;;;;;;;9.52;100.00;99633.38;4906656;29;20139;-74
2023/11/06 09:18:30;;;;;;;9.50;3.80;;;;;;;9.53;100.00;99634.94;4883765;29;20050;-73
2023/11/06 09:20:56;;;;;;;6.88;3.72;;;;;;;9.58;100.00;99643.69;4888523;29;20043;-74
2023/11/06 09:23:23;;;;;;;8.32;3.85;;;;;;;9.66;100.00;99638.78;4902246;29;20048;-72
2023/11/06 09:25:48;;;;;;;9.70;4.10;;;;;;;9.74;100.00;99646.13;4886701;29;20390;-73
2023/11/06 09:28:14;;;;;;;9.07;3.70;;;;;;;9.78;100.00;99641.81;4900191;29;20037;-75
2023/11/06 09:30:44;;;;;;;8.77;4.32;;;;;;;9.82;100.00;99650.81;4902023;29;20052;-73
2023/11/06 09:33:11;;;;;;;8.70;4.03;;;;;;;9.81;100.00;99654.59;4908352;29;20514;-73
2023/11/06 09:35:37;;;;;;;8.38;3.72;;;;;;;9.84;100.00;99657.50;4886612;29;20040;-73
2023/11/06 09:38:03;;;;;;;7.20;3.97;;;;;;;9.84;100.00;99664.72;4899899;29;20112;-73
2023/11/06 09:40:29;;;;;;;6.40;3.92;;;;;;;9.91;100.00;99670.50;4888797;29;20455;-73
2023/11/06 09:42:55;;;;;;;7.30;4.05;;;;;;;9.93;100.00;99676.34;4905378;29;20032;-73
2023/11/06 09:45:22;;;;;;;12.98;3.83;;;;;;;9.89;100.00;99679.88;4902091;29;20620;-74
2023/11/06 09:47:51;;;;;;;12.40;3.65;;;;;;;9.88;100.00;99681.75;4899104;29;20301;-73
2023/11/06 09:50:23;;;;;;;8.02;3.83;;;;;;;9.88;100.00;99684.44;4879883;29;20032;-75
2023/11/06 09:52:52;;;;;;;13.82;3.20;;;;;;;9.87;100.00;99688.19;4867721;29;20048;-72
2023/11/06 09:55:19;;;;;;;6.65;3.63;;;;;;;9.85;100.00;99695.72;4898725;29;20040;-73
2023/11/06 09:57:48;;;;;;;8.88;3.55;;;;;;;9.85;100.00;99690.38;4869757;29;20087;-73
2023/11/06 10:00:16;;;;;;;5.78;3.35;;;;;;;9.83;100.00;99695.22;4905049;29;20057;-75
2023/11/06 10:02:43;;;;;;;5.60;3.85;;;;;;;9.87;100.00;99704.22;4899288;29;20067;-73
2023/11/06 10:05:14;;;;;;;10.32;3.50;;;;;;;9.88;100.00;99700.47;4906178;29;20043;-73
2023/11/06 10:07:45;;;;;;;7.03;3.60;;;;;;;9.92;100.00;99706.06;4903701;29;20042;-74
2023/11/06 10:10:16;;;;;;;9.00;3.80;;;;;;;9.92;100.00;99703.38;4890294;29;20040;-73
2023/11/06 10:12:42;;;;;;;6.85;3.60;;;;;;;9.96;100.00;99715.88;4901823;29;20159;-74
2023/11/06 10:15:11;;;;;;;11.82;3.38;;;;;;;9.99;100.00;99715.28;4900304;29;20092;-73
2023/11/06 10:17:38;;;;;;;9.60;3.58;;;;;;;10.04;100.00;99715.22;4886886;29;20417;-74
2023/11/06 10:20:14;;;;;;;6.10;3.17;;;;;;;10.10;100.00;99711.38;4905296;29;20071;-74
2023/11/06 10:22:56;;;;;;;8.77;2.92;;;;;;;10.16;100.00;99722.00;4877245;29;20040;-74
2023/11/06 10:25:28;;;;;;;8.85;3.38;;;;;;;10.22;100.00;99728.84;4886546;29;20708;-74
2023/11/06 10:27:57;;;;;;;7.78;3.00;;;;;;;10.24;100.00;99716.81;4887270;29;20127;-73
2023/11/06 10:30:24;;;;;;;6.57;2.55;;;;;;;10.28;100.00;99719.69;4880664;29;20032;-73
2023/11/06 10:32:50;;;;;;;7.55;3.13;;;;;;;10.28;100.00;99712.47;4900097;29;20048;-74
2023/11/06 10:35:20;;;;;;;8.13;2.53;;;;;;;10.28;100.00;99722.38;4900473;29;20071;-73
2023/11/06 10:37:46;;;;;;;6.60;3.28;;;;;;;10.27;100.00;99724.25;4882732;29;20131;-73
2023/11/06 10:40:16;;;;;;;9.60;2.53;;;;;;;10.25;100.00;99720.28;4868189;29;20047;-74
2023/11/06 10:42:43;;;;;;;6.35;2.90;;;;;;;10.25;100.00;99726.44;4890641;29;20059;-74
2023/11/06 10:45:11;;;;;;;7.03;3.15;;;;;;;10.22;100.00;99726.19;4879750;29;20037;-73
2023/11/06 10:47:42;;;;;;;3.92;2.17;;;;;;;10.22;100.00;99734.22;4877833;29;20073;-73
2023/11/06 10:50:14;;;;;;;8.77;2.50;;;;;;;10.24;100.00;99740.13;4903530;29;20111;-72
2023/11/06 10:52:41;;;;;;;8.23;2.90;;;;;;;10.22;100.00;99729.66;4892741;29;20285;-73
2023/11/06 10:55:08;;;;;;;5.18;2.10;;;;;;;10.20;100.00;99734.50;4903562;29;20043;-74
2023/11/06 10:57:34;;;;;;;7.97;2.65;;;;;;;10.18;100.00;99736.69;4870572;29;20067;-74
2023/11/06 11:00:07;;;;;;;5.82;2.10;;;;;;;10.20;100.00;99733.72;4901698;29;20028;-74
2023/11/06 11:02:45;;;;;;;6.10;1.70;;;;;;;10.28;100.00;99736.53;4884896;29;20356;-76
2023/11/06 11:05:12;;;;;;;6.60;2.03;;;;;;;10.33;100.00;99739.16;4897779;29;20044;-73
2023/11/06 11:07:42;;;;;;;5.00;1.95;;;;;;;10.37;100.00;99739.38;4900958;29;20123;-73
2023/11/06 11:10:12;;;;;;;4.68;1.92;;;;;;;10.47;100.00;99747.22;4901584;29;20040;-74
2023/11/06 11:12:41;;;;;;;5.80;1.70;;;;;;;10.57;100.00;99743.59;4886933;29;20048;-74
2023/11/06 11:15:08;;;;;;;6.22;2.17;;;;;;;10.65;100.00;99741.03;4885003;29;20036;-72
2023/11/06 11:17:35;;;;;;;4.85;1.85;;;;;;;10.66;100.00;99747.97;4901657;29;20051;-72
2023/11/06 11:20:09;;;;;;;7.53;1.42;;;;;;;10.69;100.00;99756.50;4900380;29;20032;-73
2023/11/06 11:23:03;;;;;;;4.63;1.40;;;;;;;10.63;100.00;99756.59;4900621;29;20083;-74
2023/11/06 11:25:54;;;;;;;5.93;1.40;;;;;;;10.54;100.00;99760.22;4904923;29;20036;-73
2023/11/06 11:28:20;;;;;;;5.50;1.45;;;;;;;10.49;100.00;99758.44;4880834;29;20113;-74
2023/11/06 11:30:47;;;;;;;8.85;1.50;;;;;;;10.58;100.00;99766.59;4905487;29;20040;-73
2023/11/06 11:33:32;;;;;;;;;;;;;;;10.63;100.00;99756.59;4901155;29;20111;-72